Time;durP1;ratioP1;P1;durP2;ratioP2;P2;SDS_P1;SDS_P2;PMS_P1;PMS_P2;Temp;Humidity;BMP_temperature;BMP_pressure;BME280_temperature;BME280_humidity;BME280_pressure;Samples;Min_cycle;Max_cycle;Signal;HPM_P1;HPM_P2
2023/08/22 00:01:10;;;;;;;13.02;4.70;;;;;;;21.77;91.94;101968.00;4809048;29;20058;-65
2023/08/22 00:03:38;;;;;;;9.23;4.70;;;;;;;21.75;91.71;101963.88;4778830;29;20058;-65
2023/08/22 00:06:06;;;;;;;10.35;4.13;;;;;;;21.71;91.88;101955.38;4809476;29;20465;-66
2023/08/22 00:08:35;;;;;;;10.60;4.45;;;;;;;21.70;91.99;101950.97;4791479;29;20062;-66
2023/08/22 00:11:02;;;;;;;10.75;4.93;;;;;;;21.67;92.22;101949.66;4808485;29;20069;-65
2023/08/22 00:13:31;;;;;;;11.13;4.70;;;;;;;21.67;92.44;101951.56;4808995;29;20054;-66
2023/08/22 00:16:00;;;;;;;8.77;3.67;;;;;;;21.68;92.33;101954.03;4808578;29;20057;-66
2023/08/22 00:18:28;;;;;;;7.70;4.20;;;;;;;21.69;92.30;101938.22;4807300;29;20055;-66
2023/08/22 00:20:56;;;;;;;9.40;4.13;;;;;;;21.72;92.32;101942.31;4808676;29;20104;-66
2023/08/22 00:23:24;;;;;;;8.27;3.92;;;;;;;21.70;92.48;101946.22;4807204;29;20055;-65
2023/08/22 00:25:52;;;;;;;9.68;4.05;;;;;;;21.66;92.75;101945.22;4807357;29;20384;-66
2023/08/22 00:28:20;;;;;;;11.60;4.70;;;;;;;21.62;92.84;101941.47;4808263;29;20432;-66
2023/08/22 00:30:48;;;;;;;9.52;4.20;;;;;;;21.61;93.12;101941.75;4807221;29;20054;-66
2023/08/22 00:33:16;;;;;;;8.90;4.30;;;;;;;21.59;93.29;101944.03;4807174;29;20062;-66
2023/08/22 00:35:44;;;;;;;8.25;4.18;;;;;;;21.60;93.52;101945.66;4808102;29;20058;-66
2023/08/22 00:38:11;;;;;;;8.38;3.90;;;;;;;21.60;93.03;101940.94;4801797;29;20108;-66
2023/08/22 00:40:40;;;;;;;10.15;4.10;;;;;;;21.58;93.15;101937.66;4791295;29;20523;-66
2023/08/22 00:43:08;;;;;;;9.65;3.78;;;;;;;21.56;93.43;101941.88;4808094;29;20066;-65
2023/08/22 00:45:39;;;;;;;8.63;4.03;;;;;;;21.52;93.97;101938.09;4792878;29;20059;-66
2023/08/22 00:48:08;;;;;;;10.35;3.90;;;;;;;21.48;94.34;101935.16;4799919;29;20051;-66
2023/08/22 00:50:36;;;;;;;10.98;4.28;;;;;;;21.45;94.64;101933.00;4807036;29;20480;-66
2023/08/22 00:53:04;;;;;;;9.43;4.07;;;;;;;21.45;94.83;101927.44;4791697;29;20059;-66
2023/08/22 00:55:33;;;;;;;8.68;4.05;;;;;;;21.47;94.83;101927.94;4806542;29;20051;-67
2023/08/22 00:58:01;;;;;;;10.90;4.47;;;;;;;21.48;94.57;101926.84;4783955;29;20496;-67
2023/08/22 01:00:29;;;;;;;13.25;4.35;;;;;;;21.49;94.16;101917.38;4805054;29;20099;-66
2023/08/22 01:02:58;;;;;;;13.63;4.90;;;;;;;21.46;94.29;101912.47;4806709;29;20404;-66
2023/08/22 01:05:27;;;;;;;8.32;4.40;;;;;;;21.43;94.66;101913.06;4791294;29;20407;-66
2023/08/22 01:08:13;;;;;;;12.05;4.80;;;;;;;21.45;94.67;101919.13;4775372;29;20062;-65
2023/08/22 01:10:49;;;;;;;8.30;4.30;;;;;;;21.44;94.70;101917.50;4804327;29;20051;-66
2023/08/22 01:13:30;;;;;;;11.10;4.80;;;;;;;21.41;94.81;101920.91;4791512;29;20058;-66
2023/08/22 01:15:58;;;;;;;9.50;4.78;;;;;;;21.40;95.03;101916.47;4805938;29;20051;-67
2023/08/22 01:18:27;;;;;;;11.15;4.90;;;;;;;21.42;94.95;101915.03;4791359;29;20050;-66
2023/08/22 01:21:04;;;;;;;12.25;4.80;;;;;;;21.44;94.69;101921.09;4805351;29;20420;-66
2023/08/22 01:23:33;;;;;;;13.07;4.65;;;;;;;21.39;95.03;101914.81;4807386;29;20059;-65
2023/08/22 01:26:01;;;;;;;10.05;4.50;;;;;;;21.37;95.16;101914.31;4803284;29;20408;-66
2023/08/22 01:28:40;;;;;;;9.95;4.35;;;;;;;21.37;95.06;101919.84;4790175;29;20069;-66
2023/08/22 01:31:20;;;;;;;10.48;4.40;;;;;;;21.37;95.22;101914.31;4775820;30;20060;-65
2023/08/22 01:34:19;;;;;;;11.35;4.40;;;;;;;21.38;95.27;101916.78;4788106;30;20076;-66
2023/08/22 01:36:48;;;;;;;10.13;3.97;;;;;;;21.36;95.36;101913.50;4813360;29;20055;-66
2023/08/22 01:39:17;;;;;;;10.35;3.80;;;;;;;21.36;95.61;101905.19;4790577;29;20063;-67
2023/08/22 01:41:46;;;;;;;8.02;3.75;;;;;;;21.35;95.71;101909.06;4772865;30;20052;-66
2023/08/22 01:44:14;;;;;;;9.00;4.35;;;;;;;21.34;95.87;101906.63;4805042;29;20050;-66
2023/08/22 01:46:42;;;;;;;9.63;4.35;;;;;;;21.33;95.99;101896.66;4775894;29;20051;-66
2023/08/22 01:49:09;;;;;;;10.88;4.32;;;;;;;21.31;96.17;101896.16;4806674;29;20427;-66
2023/08/22 01:51:37;;;;;;;10.35;4.10;;;;;;;21.30;96.37;101906.44;4799979;29;20054;-66
2023/08/22 01:54:05;;;;;;;17.27;4.95;;;;;;;21.31;96.40;101898.94;4807066;29;20423;-66
2023/08/22 01:56:33;;;;;;;12.30;4.80;;;;;;;21.26;96.61;101900.72;4785349;29;20055;-66
2023/08/22 01:59:01;;;;;;;15.93;4.50;;;;;;;21.25;97.13;101901.00;4791781;29;20065;-66
2023/08/22 02:01:29;;;;;;;14.40;4.55;;;;;;;21.23;97.26;101893.00;4781078;29;20055;-67
2023/08/22 02:04:03;;;;;;;13.88;4.80;;;;;;;21.23;97.59;101898.53;4790958;29;20055;-67
2023/08/22 02:06:31;;;;;;;11.63;4.45;;;;;;;21.23;97.51;101890.22;4792656;29;20546;-66
2023/08/22 02:08:59;;;;;;;12.65;4.15;;;;;;;21.23;97.61;101898.53;4791933;29;20125;-65
2023/08/22 02:11:27;;;;;;;18.35;5.10;;;;;;;21.21;97.86;101895.28;4807452;29;20043;-66
2023/08/22 02:13:58;;;;;;;17.58;5.13;;;;;;;21.21;97.80;101892.53;4806552;29;20049;-64
2023/08/22 02:16:25;;;;;;;23.80;5.40;;;;;;;21.23;97.57;101886.66;4804560;29;20122;-58
2023/08/22 02:18:54;;;;;;;22.67;4.85;;;;;;;21.23;97.61;101887.47;4808995;29;20047;-63
2023/08/22 02:21:22;;;;;;;23.13;5.28;;;;;;;21.24;97.73;101882.75;4810402;29;20107;-61
2023/08/22 02:23:50;;;;;;;21.75;6.13;;;;;;;21.23;97.58;101884.69;4806310;29;20506;-65
2023/08/22 02:26:17;;;;;;;15.50;4.93;;;;;;;21.24;97.35;101883.56;4797028;30;20091;-64
2023/08/22 02:28:45;;;;;;;16.65;4.85;;;;;;;21.23;97.46;101884.69;4812286;29;20055;-65
2023/08/22 02:31:13;;;;;;;32.05;6.82;;;;;;;21.23;97.48;101884.69;4810465;30;20177;-59
2023/08/22 02:33:42;;;;;;;23.13;6.20;;;;;;;21.20;97.73;101885.31;4825390;29;20055;-62
2023/08/22 02:36:10;;;;;;;23.23;5.88;;;;;;;21.19;97.77;101880.09;4816691;29;20209;-66
2023/08/22 02:38:41;;;;;;;32.25;6.00;;;;;;;21.19;97.68;101878.16;4796316;29;20063;-65
2023/08/22 02:41:09;;;;;;;22.40;5.55;;;;;;;21.20;97.75;101887.28;4812790;29;20070;-65
2023/08/22 02:43:37;;;;;;;22.70;6.03;;;;;;;21.19;97.47;101875.38;4812496;29;20209;-66
2023/08/22 02:46:08;;;;;;;20.95;6.65;;;;;;;21.19;97.53;101875.38;4801413;29;20047;-66
2023/08/22 02:48:36;;;;;;;19.55;5.95;;;;;;;21.18;97.73;101876.50;4796376;29;20061;-66
2023/08/22 02:51:05;;;;;;;20.52;6.55;;;;;;;21.18;97.75;101878.47;4796763;29;20058;-66
2023/08/22 02:53:33;;;;;;;23.42;6.75;;;;;;;21.16;97.79;101880.72;4781342;29;20066;-66
2023/08/22 02:56:01;;;;;;;21.30;6.18;;;;;;;21.14;97.79;101881.06;4811710;29;20055;-67
2023/08/22 02:58:30;;;;;;;30.73;6.40;;;;;;;21.14;97.83;101878.28;4800157;29;20047;-66
2023/08/22 03:00:58;;;;;;;22.52;6.85;;;;;;;21.15;97.75;101879.09;4810672;29;20500;-66
2023/08/22 03:03:26;;;;;;;18.55;5.97;;;;;;;21.13;97.81;101878.59;4811866;29;20054;-67
2023/08/22 03:05:57;;;;;;;23.33;6.95;;;;;;;21.13;97.91;101882.16;4783081;29;20046;-66
2023/08/22 03:08:26;;;;;;;15.65;5.60;;;;;;;21.11;97.97;101883.63;4795622;29;20099;-67
2023/08/22 03:11:02;;;;;;;17.98;6.22;;;;;;;21.11;97.94;101878.06;4795942;29;20058;-67
2023/08/22 03:13:31;;;;;;;23.80;6.07;;;;;;;21.09;98.21;101881.16;4795799;29;20497;-67
2023/08/22 03:15:58;;;;;;;24.17;6.63;;;;;;;21.05;98.35;101877.38;4805370;29;20380;-67
2023/08/22 03:18:30;;;;;;;19.77;5.95;;;;;;;21.02;98.23;101875.22;4825042;29;20054;-67
2023/08/22 03:20:57;;;;;;;16.00;6.80;;;;;;;20.96;99.05;101876.50;4795867;29;20055;-67
2023/08/22 03:23:26;;;;;;;20.50;6.53;;;;;;;20.91;99.31;101871.06;4810784;29;20050;-66
2023/08/22 03:25:59;;;;;;;17.63;7.03;;;;;;;20.88;99.43;101868.91;4802342;29;20065;-66
2023/08/22 03:28:29;;;;;;;20.13;6.30;;;;;;;20.85;99.80;101871.19;4810687;29;20055;-66
2023/08/22 03:30:58;;;;;;;17.58;6.22;;;;;;;20.88;99.83;101871.69;4810704;29;20050;-67
2023/08/22 03:33:26;;;;;;;20.33;7.05;;;;;;;20.91;99.79;101876.63;4808812;29;20047;-66
2023/08/22 03:35:56;;;;;;;22.25;7.35;;;;;;;20.88;99.66;101877.22;4809848;29;20050;-65
2023/08/22 03:38:25;;;;;;;21.30;7.15;;;;;;;20.83;99.92;101872.63;4826568;29;20496;-66
2023/08/22 03:40:54;;;;;;;17.92;7.20;;;;;;;20.82;100.00;101874.56;4810903;29;20111;-66
2023/08/22 03:43:23;;;;;;;15.50;6.60;;;;;;;20.82;100.00;101874.56;4792299;29;20065;-66
2023/08/22 03:45:51;;;;;;;20.33;6.93;;;;;;;20.83;100.00;101873.44;4777274;29;20070;-66
2023/08/22 03:48:19;;;;;;;15.50;7.25;;;;;;;20.84;100.00;101865.94;4809176;29;20051;-66
2023/08/22 03:50:50;;;;;;;18.50;7.28;;;;;;;20.82;100.00;101876.53;4792078;29;20051;-67
2023/08/22 03:53:18;;;;;;;16.13;6.50;;;;;;;20.78;100.00;101876.34;4792092;29;20515;-66
2023/08/22 03:55:46;;;;;;;17.45;6.68;;;;;;;20.76;100.00;101873.06;4792468;29;20055;-66
2023/08/22 03:58:14;;;;;;;14.70;6.18;;;;;;;20.74;100.00;101864.25;4808472;29;20047;-66
2023/08/22 04:00:42;;;;;;;15.48;5.65;;;;;;;20.74;100.00;101875.31;4793779;29;20055;-66
2023/08/22 04:03:10;;;;;;;17.27;6.18;;;;;;;20.72;100.00;101872.03;4807511;29;20107;-66
2023/08/22 04:05:42;;;;;;;23.38;6.72;;;;;;;20.68;100.00;101868.25;4793768;29;20047;-65
2023/08/22 04:08:10;;;;;;;11.80;6.35;;;;;;;20.68;100.00;101871.00;4794542;29;20051;-66
2023/08/22 04:10:37;;;;;;;15.50;6.07;;;;;;;20.67;100.00;101861.06;4778107;29;20064;-65
2023/08/22 04:13:05;;;;;;;11.50;5.68;;;;;;;20.70;100.00;101867.94;4792572;29;20137;-64
2023/08/22 04:15:35;;;;;;;12.52;6.07;;;;;;;20.70;100.00;101868.75;4792255;29;20126;-66
2023/08/22 04:18:04;;;;;;;10.00;5.28;;;;;;;20.68;100.00;101864.66;4791898;29;20058;-66
2023/08/22 04:20:31;;;;;;;19.10;5.95;;;;;;;20.63;100.00;101862.81;4792889;29;20106;-67
2023/08/22 04:22:59;;;;;;;10.50;5.88;;;;;;;20.62;100.00;101863.97;4808204;29;20058;-67
2023/08/22 04:25:27;;;;;;;9.63;5.50;;;;;;;20.61;100.00;101859.53;4805020;29;20103;-66
2023/08/22 04:27:56;;;;;;;21.38;6.65;;;;;;;20.59;100.00;101857.09;4795522;29;20123;-67
2023/08/22 04:30:24;;;;;;;10.15;5.90;;;;;;;20.55;100.00;101858.84;4808827;29;20489;-67
2023/08/22 04:32:52;;;;;;;13.70;6.10;;;;;;;20.55;100.00;101858.00;4804686;29;20047;-66
2023/08/22 04:35:20;;;;;;;16.25;5.85;;;;;;;20.54;100.00;101864.66;4813475;29;20063;-66
2023/08/22 04:37:51;;;;;;;12.07;6.00;;;;;;;20.55;100.00;101863.53;4795423;29;20372;-67
2023/08/22 04:40:20;;;;;;;11.48;5.60;;;;;;;20.55;100.00;101866.31;4809672;29;20069;-67
2023/08/22 04:42:59;;;;;;;11.90;6.03;;;;;;;20.54;100.00;101867.41;4807137;29;20058;-67
2023/08/22 04:45:27;;;;;;;12.77;5.75;;;;;;;20.50;100.00;101864.47;4818745;29;20043;-67
2023/08/22 04:47:55;;;;;;;14.85;5.97;;;;;;;20.48;100.00;101865.91;4785505;29;20424;-66
2023/08/22 04:50:23;;;;;;;14.18;6.22;;;;;;;20.46;100.00;101862.63;4776392;29;20055;-66
2023/08/22 04:52:50;;;;;;;12.13;6.55;;;;;;;20.43;100.00;101864.06;4791845;29;20057;-66
2023/08/22 04:55:18;;;;;;;11.80;6.05;;;;;;;20.41;100.00;101867.13;4776155;29;20140;-66
2023/08/22 04:57:47;;;;;;;13.60;6.05;;;;;;;20.39;100.00;101861.06;4777579;29;20047;-65
2023/08/22 05:00:16;;;;;;;12.98;6.03;;;;;;;20.37;100.00;101863.34;4806687;29;20081;-65
2023/08/22 05:02:44;;;;;;;10.98;6.05;;;;;;;20.38;100.00;101864.16;4792245;29;20051;-65
2023/08/22 05:05:12;;;;;;;11.05;6.35;;;;;;;20.35;100.00;101860.06;4814490;29;20061;-66
2023/08/22 05:07:40;;;;;;;14.15;6.53;;;;;;;20.37;100.00;101860.59;4807728;29;20062;-66
2023/08/22 05:10:09;;;;;;;12.05;6.68;;;;;;;20.36;100.00;101858.13;4807948;29;20514;-66
2023/08/22 05:12:37;;;;;;;12.40;6.43;;;;;;;20.35;100.00;101860.06;4794247;29;20046;-66
2023/08/22 05:15:06;;;;;;;11.15;5.68;;;;;;;20.36;100.00;101861.69;4809096;29;20110;-66
2023/08/22 05:17:37;;;;;;;14.40;6.55;;;;;;;20.38;100.00;101866.94;4808596;29;20054;-65
2023/08/22 05:20:06;;;;;;;15.73;6.72;;;;;;;20.40;100.00;101859.97;4792537;29;20065;-65
2023/08/22 05:22:34;;;;;;;17.15;6.63;;;;;;;20.43;100.00;101862.09;4806313;29;20065;-66
2023/08/22 05:25:04;;;;;;;16.80;6.93;;;;;;;20.46;100.00;101865.38;4789438;29;20122;-67
2023/08/22 05:27:32;;;;;;;14.07;6.75;;;;;;;20.49;100.00;101873.06;4790669;29;20058;-66
2023/08/22 05:30:00;;;;;;;17.73;6.43;;;;;;;20.49;100.00;101862.81;4807840;29;20046;-63
2023/08/22 05:32:27;;;;;;;13.65;6.68;;;;;;;20.49;100.00;101867.53;4806577;29;20065;-65
2023/08/22 05:34:55;;;;;;;11.63;6.53;;;;;;;20.51;100.00;101870.81;4775157;29;20107;-66
2023/08/22 05:37:24;;;;;;;13.65;6.10;;;;;;;20.53;100.00;101865.78;4801285;29;20073;-66
2023/08/22 05:39:52;;;;;;;12.32;6.07;;;;;;;20.56;100.00;101870.72;4782123;29;20073;-66
2023/08/22 05:42:20;;;;;;;17.20;6.65;;;;;;;20.57;100.00;101867.66;4800650;29;20110;-65
2023/08/22 05:44:47;;;;;;;16.23;7.97;;;;;;;20.55;100.00;101871.84;4797584;29;20444;-66
2023/08/22 05:47:15;;;;;;;20.10;8.45;;;;;;;20.52;100.00;101873.28;4776519;29;20058;-65
2023/08/22 05:49:44;;;;;;;25.15;8.88;;;;;;;20.49;100.00;101873.06;4813900;29;20054;-65
2023/08/22 05:52:12;;;;;;;24.70;9.68;;;;;;;20.46;100.00;101879.22;4805867;29;20391;-65
2023/08/22 05:54:41;;;;;;;19.02;9.70;;;;;;;20.43;100.00;101883.44;4799571;29;20062;-66
2023/08/22 05:57:09;;;;;;;19.77;9.43;;;;;;;20.39;100.00;101877.69;4775564;29;20051;-66
2023/08/22 05:59:37;;;;;;;18.45;8.95;;;;;;;20.38;100.00;101878.00;4789973;29;20058;-66
2023/08/22 06:02:05;;;;;;;18.65;8.63;;;;;;;20.38;100.00;101884.38;4801015;29;20051;-66
2023/08/22 06:04:33;;;;;;;16.70;8.98;;;;;;;20.37;100.00;101882.72;4805444;29;20059;-65
2023/08/22 06:07:01;;;;;;;17.77;8.98;;;;;;;20.40;100.00;101889.59;4797440;29;20090;-66
2023/08/22 06:09:29;;;;;;;16.05;8.70;;;;;;;20.39;100.00;101885.97;4806616;29;20050;-66
2023/08/22 06:11:56;;;;;;;13.75;8.98;;;;;;;20.37;100.00;101893.81;4799894;29;20054;-64
2023/08/22 06:14:24;;;;;;;18.92;10.05;;;;;;;20.36;100.00;101894.91;4800710;29;20058;-66
2023/08/22 06:16:52;;;;;;;16.95;9.10;;;;;;;20.35;100.00;101893.28;4792200;29;20054;-64
2023/08/22 06:19:20;;;;;;;13.65;7.53;;;;;;;20.39;100.00;101897.06;4804781;29;20065;-66
2023/08/22 06:21:48;;;;;;;15.20;6.95;;;;;;;20.45;100.00;101891.44;4792235;29;20111;-65
2023/08/22 06:24:15;;;;;;;14.07;6.20;;;;;;;20.49;100.00;101895.22;4790582;29;20054;-66
2023/08/22 06:26:43;;;;;;;13.80;6.72;;;;;;;20.54;100.00;101889.56;4783507;29;20522;-64
2023/08/22 06:29:11;;;;;;;17.90;7.60;;;;;;;20.55;100.00;101889.28;4806964;29;20051;-65
2023/08/22 06:31:40;;;;;;;14.70;7.70;;;;;;;20.59;100.00;101889.50;4795697;29;20066;-66
2023/08/22 06:34:10;;;;;;;12.98;6.60;;;;;;;20.61;100.00;101888.06;4789400;29;20063;-62
2023/08/22 06:36:37;;;;;;;13.82;6.43;;;;;;;20.64;100.00;101892.16;4787050;29;20111;-59
2023/08/22 06:39:06;;;;;;;13.35;5.88;;;;;;;20.69;100.00;101886.50;4819369;29;20132;-59
2023/08/22 06:41:35;;;;;;;16.48;7.38;;;;;;;20.69;100.00;101894.81;4805151;29;20116;-64
2023/08/22 06:44:10;;;;;;;18.00;7.07;;;;;;;20.70;99.88;101896.44;4794919;29;20062;-63
2023/08/22 06:46:38;;;;;;;14.27;7.30;;;;;;;20.70;100.00;101896.44;4785526;29;20077;-58
2023/08/22 06:49:06;;;;;;;15.35;7.88;;;;;;;20.70;100.00;101893.69;4823573;29;20074;-60
2023/08/22 06:51:34;;;;;;;15.02;7.63;;;;;;;20.71;100.00;101903.66;4814709;29;20059;-64
2023/08/22 06:54:02;;;;;;;12.40;6.70;;;;;;;20.72;100.00;101905.28;4790390;29;20071;-65
2023/08/22 06:56:30;;;;;;;15.18;7.13;;;;;;;20.75;100.00;101904.63;4790854;29;20079;-64
2023/08/22 06:58:58;;;;;;;9.15;4.95;;;;;;;20.80;100.00;101900.94;4790783;29;20065;-65
2023/08/22 07:01:25;;;;;;;11.05;6.30;;;;;;;20.83;100.00;101908.66;4806658;29;20050;-64
2023/08/22 07:03:53;;;;;;;14.15;7.20;;;;;;;20.87;100.00;101911.59;4790058;29;20051;-65
2023/08/22 07:06:41;;;;;;;10.27;6.32;;;;;;;20.89;100.00;101917.66;4767497;30;20055;-65
2023/08/22 07:09:09;;;;;;;10.70;5.93;;;;;;;20.93;100.00;101913.13;4772857;30;20058;-66
2023/08/22 07:11:37;;;;;;;11.90;5.00;;;;;;;21.00;99.78;101913.53;4788031;29;20512;-65
2023/08/22 07:14:05;;;;;;;11.40;4.75;;;;;;;21.05;98.77;101910.63;4775993;30;20103;-65
2023/08/22 07:16:32;;;;;;;11.30;6.07;;;;;;;21.08;97.48;101907.22;4811891;29;20055;-66
2023/08/22 07:19:01;;;;;;;14.75;5.85;;;;;;;21.02;93.42;101909.31;4795441;29;20078;-66
2023/08/22 07:21:29;;;;;;;13.85;5.63;;;;;;;20.96;91.21;101921.63;4812017;29;20412;-66
2023/08/22 07:23:57;;;;;;;12.05;4.97;;;;;;;20.89;90.73;101925.97;4828512;29;20384;-67
2023/08/22 07:26:25;;;;;;;12.20;5.82;;;;;;;20.82;91.44;101924.44;4827989;29;20054;-65
2023/08/22 07:28:53;;;;;;;10.95;5.35;;;;;;;20.81;91.14;101931.09;4810760;29;20441;-66
2023/08/22 07:31:21;;;;;;;12.38;5.97;;;;;;;20.82;91.32;101932.75;4792087;30;20047;-66
2023/08/22 07:33:49;;;;;;;13.82;5.72;;;;;;;20.87;90.47;101929.03;4790972;30;20181;-66
2023/08/22 07:36:18;;;;;;;20.30;7.10;;;;;;;20.95;90.14;101921.94;4804947;29;20508;-66
2023/08/22 07:38:46;;;;;;;20.23;6.20;;;;;;;21.07;90.53;101922.25;4808590;29;20113;-67
2023/08/22 07:41:13;;;;;;;15.27;5.20;;;;;;;21.16;89.37;101913.97;4819479;29;20059;-68
2023/08/22 07:43:41;;;;;;;10.20;4.35;;;;;;;21.19;85.87;101908.66;4793452;29;20087;-67
2023/08/22 07:46:09;;;;;;;7.88;3.58;;;;;;;21.19;84.21;101925.28;4814988;29;20091;-67
2023/08/22 07:48:37;;;;;;;6.80;3.40;;;;;;;21.18;83.46;101926.38;4765496;29;20067;-66
2023/08/22 07:51:04;;;;;;;8.02;3.60;;;;;;;21.19;83.17;101925.28;4794867;29;20054;-67
2023/08/22 07:53:32;;;;;;;9.00;3.67;;;;;;;21.26;84.60;101914.56;4793498;29;20058;-67
2023/08/22 07:56:00;;;;;;;11.07;4.55;;;;;;;21.32;82.85;101923.56;4809707;29;20047;-67
2023/08/22 07:58:31;;;;;;;11.77;5.70;;;;;;;21.35;82.06;101920.16;4809025;29;20062;-67
2023/08/22 08:00:59;;;;;;;12.57;4.97;;;;;;;21.38;82.56;101924.25;4822084;29;20447;-67
2023/08/22 08:03:27;;;;;;;12.38;4.00;;;;;;;21.41;83.02;101927.28;4814511;29;20051;-68
2023/08/22 08:05:55;;;;;;;8.73;4.25;;;;;;;21.46;83.39;101927.13;4814740;29;20191;-68
2023/08/22 08:08:23;;;;;;;11.05;4.70;;;;;;;21.52;83.85;101927.81;4828228;29;20145;-68
2023/08/22 08:10:50;;;;;;;7.80;4.40;;;;;;;21.59;83.79;101936.50;4811662;29;20110;-68
2023/08/22 08:13:18;;;;;;;10.13;5.38;;;;;;;21.62;83.21;101933.13;4815846;29;20042;-67
2023/08/22 08:15:46;;;;;;;10.18;5.03;;;;;;;21.62;82.29;101933.13;4814222;29;20066;-68
2023/08/22 08:18:16;;;;;;;11.27;4.07;;;;;;;21.63;82.67;101940.31;4821667;29;20098;-68
2023/08/22 08:20:43;;;;;;;10.75;5.03;;;;;;;21.64;81.30;101941.13;4814435;29;20129;-68
2023/08/22 08:23:11;;;;;;;9.52;4.28;;;;;;;21.64;81.65;101938.34;4818405;29;20055;-68
2023/08/22 08:25:39;;;;;;;8.85;3.97;;;;;;;21.64;81.10;101941.13;4811606;29;20046;-68
2023/08/22 08:28:07;;;;;;;7.85;3.42;;;;;;;21.65;81.37;101949.13;4825063;29;20542;-67
2023/08/22 08:30:35;;;;;;;9.27;3.80;;;;;;;21.67;81.56;101955.19;4801809;29;20050;-68
2023/08/22 08:33:05;;;;;;;9.43;3.65;;;;;;;21.69;81.32;101952.09;4822648;29;20050;-69
2023/08/22 08:35:33;;;;;;;8.93;3.22;;;;;;;21.71;81.73;101952.59;4804069;29;20074;-68
2023/08/22 08:38:01;;;;;;;9.50;3.97;;;;;;;21.74;81.39;101951.13;4800213;29;20050;-67
2023/08/22 08:40:35;;;;;;;8.20;3.50;;;;;;;21.75;81.86;101952.78;4806991;29;20062;-68
2023/08/22 08:43:03;;;;;;;10.15;4.00;;;;;;;21.76;82.61;101959.97;4792912;29;20137;-67
2023/08/22 08:45:31;;;;;;;10.02;3.85;;;;;;;21.79;83.04;101956.56;4792925;29;20058;-67
2023/08/22 08:47:59;;;;;;;11.73;4.28;;;;;;;21.82;83.39;101951.19;4777513;29;20496;-67
2023/08/22 08:50:27;;;;;;;13.32;4.90;;;;;;;21.84;83.96;101956.41;4801592;29;20060;-68
2023/08/22 08:52:56;;;;;;;11.70;5.75;;;;;;;21.85;84.42;101952.53;4777500;29;20109;-69
2023/08/22 08:55:24;;;;;;;13.60;5.70;;;;;;;21.84;84.82;101946.16;4791815;29;20050;-70
2023/08/22 08:57:53;;;;;;;10.60;4.60;;;;;;;21.86;85.07;101954.16;4808222;29;20119;-67
2023/08/22 09:00:20;;;;;;;10.73;5.45;;;;;;;21.89;85.48;101956.31;4808015;29;20058;-67
2023/08/22 09:02:48;;;;;;;11.15;5.82;;;;;;;21.90;85.34;101960.72;4808196;29;20067;-68
2023/08/22 09:05:16;;;;;;;11.88;5.10;;;;;;;21.90;85.11;101955.16;4808118;29;20066;-68
2023/08/22 09:07:44;;;;;;;10.32;5.05;;;;;;;21.89;85.57;101957.13;4791391;29;20123;-67
2023/08/22 09:10:13;;;;;;;12.27;5.80;;;;;;;21.91;86.00;101956.78;4796343;29;20051;-69
2023/08/22 09:12:41;;;;;;;13.20;4.65;;;;;;;21.94;86.02;101953.41;4794092;29;20061;-68
2023/08/22 09:15:09;;;;;;;13.20;6.15;;;;;;;21.95;85.32;101946.69;4777121;29;20047;-69
2023/08/22 09:17:38;;;;;;;19.35;6.75;;;;;;;21.95;84.76;101955.03;4792363;29;20053;-68
2023/08/22 09:20:10;;;;;;;12.40;5.00;;;;;;;21.95;84.94;101951.44;4794801;29;20047;-67
2023/08/22 09:22:38;;;;;;;12.40;5.60;;;;;;;21.97;84.47;101961.09;4810100;29;20058;-68
2023/08/22 09:25:07;;;;;;;11.90;4.72;;;;;;;22.00;84.80;101959.63;4825739;29;20050;-67
2023/08/22 09:27:35;;;;;;;11.57;5.22;;;;;;;22.01;84.48;101951.00;4809512;29;20050;-67
2023/08/22 09:30:05;;;;;;;10.35;5.32;;;;;;;22.02;83.96;101951.81;4793010;29;20077;-67
2023/08/22 09:32:33;;;;;;;11.63;4.97;;;;;;;22.02;84.63;101952.63;4776940;29;20067;-67
2023/08/22 09:35:02;;;;;;;13.30;6.00;;;;;;;22.04;84.13;101950.34;4806917;29;20064;-68
2023/08/22 09:37:36;;;;;;;12.68;6.18;;;;;;;22.06;84.28;101945.28;4791604;29;20134;-68
2023/08/22 09:40:16;;;;;;;14.10;6.18;;;;;;;22.11;84.50;101956.25;4790253;29;20074;-67
2023/08/22 09:42:44;;;;;;;12.02;5.88;;;;;;;22.19;84.29;101951.06;4807389;29;20043;-66
2023/08/22 09:45:13;;;;;;;12.88;6.38;;;;;;;22.24;84.66;101954.53;4788290;30;20058;-68
2023/08/22 09:47:43;;;;;;;14.95;6.35;;;;;;;22.29;84.13;101954.41;4804293;29;20055;-68
2023/08/22 09:50:14;;;;;;;12.48;6.32;;;;;;;22.31;83.86;101948.53;4782810;29;20057;-68
2023/08/22 09:52:42;;;;;;;14.73;6.90;;;;;;;22.32;84.28;101950.16;4824017;29;20058;-66
2023/08/22 09:55:11;;;;;;;12.20;6.68;;;;;;;22.33;85.21;101951.81;4825164;29;20058;-67
2023/08/22 09:57:39;;;;;;;14.50;6.57;;;;;;;22.32;83.89;101944.59;4825309;29;20062;-67
2023/08/22 10:00:10;;;;;;;13.20;6.03;;;;;;;22.31;84.27;101937.44;4799627;29;20534;-67
2023/08/22 10:02:41;;;;;;;11.40;5.63;;;;;;;22.31;83.44;101942.97;4809069;29;20082;-66
2023/08/22 10:05:13;;;;;;;11.93;5.82;;;;;;;22.31;83.05;101956.88;4808806;29;20114;-66
2023/08/22 10:07:41;;;;;;;12.45;5.88;;;;;;;22.35;83.07;101949.53;4808647;29;20060;-65
2023/08/22 10:10:09;;;;;;;13.05;5.25;;;;;;;22.43;83.08;101959.84;4802562;29;20050;-66
2023/08/22 10:12:38;;;;;;;11.57;5.72;;;;;;;22.50;82.41;101960.22;4786747;29;20050;-67
2023/08/22 10:15:07;;;;;;;11.93;5.45;;;;;;;22.52;82.85;101938.50;4825507;29;20051;-66
2023/08/22 10:17:35;;;;;;;10.98;5.55;;;;;;;22.54;81.31;101950.09;4809418;29;20054;-67
2023/08/22 10:20:06;;;;;;;10.00;5.40;;;;;;;22.55;80.85;101948.94;4814722;29;20496;-67
2023/08/22 10:22:34;;;;;;;10.68;5.00;;;;;;;22.57;81.29;101956.16;4807656;29;20059;-68
2023/08/22 10:25:04;;;;;;;13.68;7.20;;;;;;;22.54;81.25;101947.31;4819388;29;20522;-65
2023/08/22 10:27:34;;;;;;;16.10;8.45;;;;;;;22.54;81.73;101950.09;4824766;29;20502;-67
2023/08/22 10:30:15;;;;;;;17.48;7.95;;;;;;;22.53;81.79;101933.75;4794376;29;20054;-64
2023/08/22 10:33:05;;;;;;;14.50;7.30;;;;;;;22.54;81.98;101930.66;4776874;29;20102;-65
2023/08/22 10:36:09;;;;;;;18.48;7.72;;;;;;;22.59;79.59;101937.22;4801330;29;20054;-66
2023/08/22 10:39:07;;;;;;;13.48;6.53;;;;;;;22.56;77.54;101935.88;4472685;29;10000512;-66
2023/08/22 10:41:55;;;;;;;13.77;5.32;;;;;;;22.63;75.14;101938.19;4781265;30;20059;-66
2023/08/22 10:44:30;;;;;;;10.05;3.70;;;;;;;22.71;74.72;101940.19;4792164;29;20043;-66
2023/08/22 10:47:09;;;;;;;8.80;3.50;;;;;;;22.81;74.04;101936.28;4790889;29;20062;-67
2023/08/22 10:49:39;;;;;;;11.80;4.82;;;;;;;22.90;74.37;101942.66;4791823;29;20134;-66
2023/08/22 10:52:37;;;;;;;10.23;4.18;;;;;;;22.91;74.38;101925.66;4807111;29;20031;-61
2023/08/22 10:55:11;;;;;;;10.25;4.57;;;;;;;22.91;74.76;101916.50;4819751;29;20057;-60
2023/08/22 10:57:45;;;;;;;12.70;4.35;;;;;;;22.89;72.99;101930.72;4804747;30;20147;-65
2023/08/22 11:00:21;;;;;;;11.30;4.00;;;;;;;22.89;71.44;101927.94;4805587;29;20059;-65
2023/08/22 11:02:51;;;;;;;11.00;4.10;;;;;;;22.90;70.62;101921.25;4823488;29;20059;-61
2023/08/22 11:05:19;;;;;;;8.30;3.80;;;;;;;22.93;70.84;101930.91;4825483;29;20082;-60
2023/08/22 11:07:48;;;;;;;8.73;3.20;;;;;;;22.94;71.58;101936.09;4840975;29;20046;-64
2023/08/22 11:10:22;;;;;;;6.90;2.92;;;;;;;22.97;69.77;101935.47;4816822;29;20063;-66
2023/08/22 11:12:53;;;;;;;6.82;2.90;;;;;;;23.00;67.94;101925.69;4794244;29;20055;-65
2023/08/22 11:15:21;;;;;;;8.80;2.70;;;;;;;23.00;66.94;101925.69;4793275;29;20047;-67
2023/08/22 11:17:50;;;;;;;7.80;2.80;;;;;;;23.01;67.14;101927.31;4805063;29;20055;-65
2023/08/22 11:20:23;;;;;;;8.57;3.03;;;;;;;23.01;65.59;101932.88;4803470;29;20062;-66
2023/08/22 11:22:51;;;;;;;9.93;2.85;;;;;;;23.02;66.14;101939.25;4793806;29;20412;-65
2023/08/22 11:25:24;;;;;;;8.40;3.00;;;;;;;23.02;66.07;101930.91;4777990;29;20050;-64
2023/08/22 11:27:53;;;;;;;7.18;2.80;;;;;;;23.03;66.33;101940.91;4809085;29;20057;-67